createdAt,value
2018-04-15T00:02:15.595Z,101496.30
2018-04-15T00:04:41.623Z,101494.19
2018-04-15T00:07:07.640Z,101490.75
2018-04-15T00:09:33.659Z,101494.62
2018-04-15T00:11:59.687Z,101487.37
2018-04-15T00:14:25.741Z,101485.26
2018-04-15T00:16:51.738Z,101482.45
2018-04-15T00:19:17.733Z,101478.50
2018-04-15T00:21:43.735Z,101476.33
2018-04-15T00:24:09.757Z,101471.47
2018-04-15T00:26:35.876Z,101467.03
2018-04-15T00:29:01.912Z,101468.45
2018-04-15T00:31:28.043Z,101465.59
2018-04-15T00:33:54.148Z,101460.49
2018-04-15T00:36:20.267Z,101458.91
2018-04-15T00:38:46.285Z,101460.67
2018-04-15T00:41:12.341Z,101451.49
2018-04-15T00:43:38.413Z,101446.81
2018-04-15T00:46:04.526Z,101443.54
2018-04-15T00:48:30.551Z,101446.39
2018-04-15T00:50:56.640Z,101439.18
2018-04-15T00:53:22.788Z,101440.69
2018-04-15T00:55:48.923Z,101437.34
2018-04-15T00:58:14.984Z,101433.77
2018-04-15T01:00:41.008Z,101427.67
2018-04-15T01:03:07.100Z,101423.07
2018-04-15T01:05:33.112Z,101421.23
2018-04-15T01:07:59.128Z,101413.15
2018-04-15T01:10:25.141Z,101408.92
2018-04-15T01:12:51.258Z,101404.22
2018-04-15T01:15:17.242Z,101399.14
2018-04-15T01:17:43.291Z,101394.30
2018-04-15T01:20:09.296Z,101386.77
2018-04-15T01:22:35.339Z,101377.97
2018-04-15T01:25:01.349Z,101372.28
2018-04-15T01:27:27.373Z,101363.94
2018-04-15T01:29:53.396Z,101368.86
2018-04-15T01:32:19.434Z,101363.52
2018-04-15T01:34:45.440Z,101362.42
2018-04-15T01:37:11.448Z,101351.80
2018-04-15T01:39:37.479Z,101344.70
2018-04-15T01:42:03.505Z,101342.45
2018-04-15T01:44:29.529Z,101346.28
2018-04-15T01:46:55.717Z,101334.33
2018-04-15T01:49:21.731Z,101337.57
2018-04-15T01:51:47.766Z,101336.45
2018-04-15T01:54:13.793Z,101329.20
2018-04-15T01:56:39.791Z,101329.55
2018-04-15T01:59:05.820Z,101328.84
2018-04-15T02:01:31.846Z,101332.44
2018-04-15T02:03:57.871Z,101331.10
2018-04-15T02:06:23.897Z,101331.10
2018-04-15T02:08:49.961Z,101329.63
2018-04-15T02:11:16.076Z,101333.21
2018-04-15T02:13:42.084Z,101331.87
2018-04-15T02:16:08.133Z,101333.48
2018-04-15T02:18:34.165Z,101330.19
2018-04-15T02:21:00.258Z,101331.10
2018-04-15T02:23:26.288Z,101325.55
2018-04-15T02:25:52.285Z,101320.34
2018-04-15T02:28:18.985Z,101319.14
2018-04-15T02:30:45.036Z,101310.98
2018-04-15T02:33:11.137Z,101309.58
2018-04-15T02:35:37.141Z,101304.50
2018-04-15T02:38:03.125Z,101301.06
2018-04-15T02:40:29.163Z,101298.31
2018-04-15T02:42:55.221Z,101301.97
2018-04-15T02:45:21.227Z,101307.67
2018-04-15T02:47:47.259Z,101299.66
2018-04-15T02:50:13.296Z,101299.92
2018-04-15T02:52:39.300Z,101303.19
2018-04-15T02:55:05.311Z,101305.38
2018-04-15T02:57:31.353Z,101299.11
2018-04-15T02:59:57.393Z,101305.45
2018-04-15T03:02:23.399Z,101299.61
2018-04-15T03:04:49.461Z,101300.94
2018-04-15T03:07:15.512Z,101298.38
2018-04-15T03:09:41.510Z,101290.84
2018-04-15T03:12:07.505Z,101296.56
2018-04-15T03:14:33.513Z,101286.74
2018-04-15T03:16:59.523Z,101287.92
2018-04-15T03:19:25.550Z,101291.50
2018-04-15T03:21:51.569Z,101285.28
2018-04-15T03:24:17.586Z,101277.90
2018-04-15T03:26:43.648Z,101280.09
2018-04-15T03:29:09.672Z,101267.78
2018-04-15T03:31:35.677Z,101270.16
2018-04-15T03:34:01.684Z,101273.59
2018-04-15T03:36:27.679Z,101277.23
2018-04-15T03:38:53.662Z,101259.91
2018-04-15T03:41:19.674Z,101263.61
2018-04-15T03:43:45.714Z,101259.37
2018-04-15T03:46:11.777Z,101260.98
2018-04-15T03:48:37.801Z,101258.70
2018-04-15T03:51:03.803Z,101259.00
2018-04-15T03:53:29.982Z,101252.92
2018-04-15T03:55:55.997Z,101245.48
2018-04-15T03:58:22.001Z,101245.09
2018-04-15T04:00:48.078Z,101244.63
2018-04-15T04:03:14.179Z,101247.52
2018-04-15T04:05:40.310Z,101234.14
2018-04-15T04:08:06.313Z,101241.47
2018-04-15T04:10:32.324Z,101236.63
2018-04-15T04:12:59.058Z,101232.84
2018-04-15T04:15:25.029Z,101234.71
2018-04-15T04:18:03.237Z,101233.87
2018-04-15T04:20:41.342Z,101233.48
2018-04-15T04:23:19.755Z,101230.70
2018-04-15T04:25:57.834Z,101234.41
2018-04-15T04:28:23.915Z,101228.71
2018-04-15T04:30:49.936Z,101233.50
2018-04-15T04:33:15.928Z,101223.39
2018-04-15T04:35:41.920Z,101223.69
2018-04-15T04:38:07.902Z,101221.33
2018-04-15T04:40:33.987Z,101222.22
2018-04-15T04:43:00.022Z,101223.15
2018-04-15T04:45:26.006Z,101215.49
2018-04-15T04:47:52.122Z,101216.21
2018-04-15T04:50:18.131Z,101209.15
2018-04-15T04:52:50.971Z,101202.47
2018-04-15T04:55:17.518Z,101207.33
2018-04-15T04:57:43.521Z,101210.70
2018-04-15T05:00:09.640Z,101211.12
2018-04-15T05:02:35.766Z,101209.09
2018-04-15T05:05:01.792Z,101213.80
2018-04-15T05:07:27.814Z,101210.47
2018-04-15T05:09:53.873Z,101208.78
2018-04-15T05:12:19.934Z,101203.45
2018-04-15T05:14:45.957Z,101207.67
2018-04-15T05:17:12.123Z,101208.94
2018-04-15T05:19:38.197Z,101206.05
2018-04-15T05:22:04.301Z,101208.48
2018-04-15T05:24:30.406Z,101204.88
2018-04-15T05:26:56.404Z,101211.04
2018-04-15T05:29:22.476Z,101207.19
2018-04-15T05:31:48.652Z,101205.69
2018-04-15T05:34:15.584Z,101205.64
2018-04-15T05:36:41.646Z,101205.57
2018-04-15T05:39:07.684Z,101208.40
2018-04-15T05:41:33.702Z,101204.13
2018-04-15T05:43:59.754Z,101201.41
2018-04-15T05:46:25.804Z,101197.01
2018-04-15T05:48:51.831Z,101200.55
2018-04-15T05:51:18.733Z,101201.17
2018-04-15T05:53:44.762Z,101206.53
2018-04-15T05:56:10.823Z,101197.31
2018-04-15T05:58:36.934Z,101191.30
2018-04-15T06:01:03.069Z,101195.83
2018-04-15T06:03:29.104Z,101196.82
2018-04-15T06:05:55.136Z,101189.99
2018-04-15T06:08:21.295Z,101183.86
2018-04-15T06:10:47.362Z,101181.27
2018-04-15T06:13:13.376Z,101176.20
2018-04-15T06:15:39.433Z,101176.53
2018-04-15T06:18:05.456Z,101174.03
2018-04-15T06:20:31.515Z,101176.09
2018-04-15T06:25:30.269Z,101167.51
2018-04-15T06:27:56.305Z,101172.16
2018-04-15T06:30:22.405Z,101172.16
2018-04-15T06:32:48.454Z,101169.99
2018-04-15T06:35:14.469Z,101169.67
2018-04-15T06:37:41.235Z,101164.04
2018-04-15T06:40:07.268Z,101170.41
2018-04-15T06:42:33.412Z,101168.06
2018-04-15T06:44:59.856Z,101165.80
2018-04-15T06:47:25.897Z,101159.17
2018-04-15T06:49:51.947Z,101167.03
2018-04-15T06:52:18.033Z,101157.23
2018-04-15T06:54:44.049Z,101166.52
2018-04-15T06:57:10.384Z,101164.34
2018-04-15T06:59:36.600Z,101165.28
2018-04-15T07:02:02.690Z,101160.77
2018-04-15T07:04:29.274Z,101163.70
2018-04-15T07:06:55.308Z,101163.53
2018-04-15T07:09:21.429Z,101165.71
2018-04-15T07:11:47.599Z,101165.19
2018-04-15T07:14:13.726Z,101165.45
2018-04-15T07:16:39.778Z,101160.09
2018-04-15T07:19:05.895Z,101160.34
2018-04-15T07:21:39.020Z,101162.27
2018-04-15T07:24:05.119Z,101156.99
2018-04-15T07:26:31.144Z,101147.91
2018-04-15T07:28:57.147Z,101147.75
2018-04-15T07:31:23.208Z,101149.11
2018-04-15T07:33:49.261Z,101147.77
2018-04-15T07:36:15.295Z,101143.75
2018-04-15T07:38:41.384Z,101137.95
2018-04-15T07:41:07.416Z,101143.31
2018-04-15T07:43:33.463Z,101141.70
2018-04-15T07:45:59.508Z,101143.39
2018-04-15T07:48:25.499Z,101143.91
2018-04-15T07:50:51.582Z,101132.08
2018-04-15T07:53:17.623Z,101131.41
2018-04-15T07:55:43.629Z,101131.07
2018-04-15T07:58:09.649Z,101137.45
2018-04-15T08:00:35.655Z,101133.00
2018-04-15T08:03:01.684Z,101135.86
2018-04-15T08:05:27.709Z,101131.66
2018-04-15T08:07:54.313Z,101123.98
2018-04-15T08:10:20.472Z,101119.83
2018-04-15T08:12:46.473Z,101123.12
2018-04-15T08:15:12.495Z,101118.64
2018-04-15T08:17:38.615Z,101122.23
2018-04-15T08:20:05.294Z,101121.20
2018-04-15T08:22:31.379Z,101127.22
2018-04-15T08:24:57.482Z,101132.23
2018-04-15T08:27:23.510Z,101125.81
2018-04-15T08:29:49.535Z,101122.44
2018-04-15T08:32:15.563Z,101124.98
2018-04-15T08:34:41.605Z,101113.83
2018-04-15T08:37:07.755Z,101116.52
2018-04-15T08:39:33.738Z,101117.36
2018-04-15T08:41:59.760Z,101117.53
2018-04-15T08:44:25.822Z,101109.34
2018-04-15T08:46:51.796Z,101112.41
2018-04-15T08:49:18.441Z,101105.34
2018-04-15T08:51:44.521Z,101097.86
2018-04-15T08:54:10.554Z,101099.58
2018-04-15T08:56:36.620Z,101097.13
2018-04-15T08:59:02.619Z,101099.22
2018-04-15T09:01:28.752Z,101099.98
2018-04-15T09:03:54.792Z,101089.30
2018-04-15T09:06:20.804Z,101096.64
2018-04-15T09:08:46.906Z,101094.77
2018-04-15T09:11:13.056Z,101088.03
2018-04-15T09:13:39.079Z,101089.03
2018-04-15T09:16:05.109Z,101088.03
2018-04-15T09:18:31.236Z,101085.79
2018-04-15T09:20:57.289Z,101088.80
2018-04-15T09:23:23.302Z,101073.15
2018-04-15T09:25:49.340Z,101073.27
2018-04-15T09:28:15.377Z,101080.77
2018-04-15T09:30:47.367Z,101088.84
2018-04-15T09:33:13.412Z,101076.00
2018-04-15T09:35:39.469Z,101081.56
2018-04-15T09:38:05.529Z,101077.52
2018-04-15T09:40:31.550Z,101078.06
2018-04-15T09:42:57.571Z,101065.94
2018-04-15T09:45:23.597Z,101072.19
2018-04-15T09:47:49.800Z,101071.63
2018-04-15T09:50:15.855Z,101062.34
2018-04-15T09:52:41.862Z,101067.79
2018-04-15T09:55:07.898Z,101067.33
2018-04-15T09:57:33.944Z,101066.08
2018-04-15T09:59:59.989Z,101063.30
2018-04-15T10:02:26.027Z,101067.16
2018-04-15T10:04:52.037Z,101066.46
2018-04-15T10:07:18.076Z,101062.69
2018-04-15T10:09:44.339Z,101063.00
2018-04-15T10:12:10.369Z,101063.09
2018-04-15T10:14:36.389Z,101052.89
2018-04-15T10:17:02.416Z,101051.27
2018-04-15T10:19:28.554Z,101051.53
2018-04-15T10:21:54.710Z,101053.33
2018-04-15T10:24:20.809Z,101051.58
2018-04-15T10:26:46.897Z,101050.87
2018-04-15T10:29:12.892Z,101046.30
2018-04-15T10:31:39.262Z,101046.58
2018-04-15T10:34:05.341Z,101039.73
2018-04-15T10:36:31.400Z,101046.21
2018-04-15T10:38:57.473Z,101033.75
2018-04-15T10:41:23.489Z,101029.09
2018-04-15T10:43:49.496Z,101031.00
2018-04-15T10:46:15.492Z,101024.48
2018-04-15T10:48:41.500Z,101025.80
2018-04-15T10:51:07.506Z,101025.27
2018-04-15T10:53:33.608Z,101018.94
2018-04-15T10:55:59.673Z,101031.52
2018-04-15T10:58:25.705Z,101029.94
2018-04-15T11:00:51.792Z,101028.48
2018-04-15T11:03:17.821Z,101015.42
2018-04-15T11:05:43.835Z,101022.89
2018-04-15T11:08:09.851Z,101023.34
2018-04-15T11:10:35.864Z,101016.02
2018-04-15T11:13:01.952Z,101016.30
2018-04-15T11:15:28.054Z,101012.26
2018-04-15T11:17:54.071Z,101013.20
2018-04-15T11:20:20.150Z,101017.02
2018-04-15T11:22:46.221Z,101021.53
2018-04-15T11:25:12.324Z,101015.73
2018-04-15T11:27:38.363Z,101011.73
2018-04-15T11:30:04.379Z,101016.44
2018-04-15T11:32:37.417Z,101011.55
2018-04-15T11:35:03.440Z,101013.63
2018-04-15T11:37:29.447Z,101011.75
2018-04-15T11:39:55.501Z,101007.91
2018-04-15T11:42:21.572Z,101005.92
2018-04-15T11:44:47.614Z,101002.38
2018-04-15T11:47:13.662Z,101010.61
2018-04-15T11:49:39.781Z,101002.38
2018-04-15T11:52:05.788Z,101004.95
2018-04-15T11:54:31.825Z,101010.35
2018-04-15T11:56:57.850Z,101004.17
2018-04-15T11:59:23.857Z,101000.23
2018-04-15T12:01:49.855Z,100999.48
2018-04-15T12:04:15.863Z,100996.19
2018-04-15T12:06:41.927Z,101002.39
2018-04-15T12:09:07.971Z,100987.94
2018-04-15T12:11:34.038Z,100994.48
2018-04-15T12:14:00.050Z,100993.11
2018-04-15T12:16:26.125Z,100992.19
2018-04-15T12:18:52.172Z,100991.10
2018-04-15T12:21:18.890Z,100990.18
2018-04-15T12:23:44.962Z,100995.97
2018-04-15T12:26:11.033Z,100986.22
2018-04-15T12:28:37.089Z,100985.81
2018-04-15T12:31:03.113Z,100988.52
2018-04-15T12:33:29.153Z,100979.53
2018-04-15T12:35:55.296Z,100982.66
2018-04-15T12:38:21.328Z,100981.17
2018-04-15T12:40:47.405Z,100976.61
2018-04-15T12:43:13.401Z,100979.16
2018-04-15T12:45:39.440Z,100978.59
2018-04-15T12:48:05.473Z,100984.62
2018-04-15T12:50:31.681Z,100978.12
2018-04-15T12:52:57.680Z,100971.05
2018-04-15T12:55:23.720Z,100971.80
2018-04-15T12:57:49.758Z,100967.89
2018-04-15T13:00:15.804Z,100955.38
2018-04-15T13:02:41.837Z,100965.67
2018-04-15T13:05:07.877Z,100966.09
2018-04-15T13:07:33.941Z,100962.86
2018-04-15T13:10:00.005Z,100957.80
2018-04-15T13:12:26.136Z,100965.77
2018-04-15T13:14:52.760Z,100961.50
2018-04-15T13:17:18.880Z,100966.53
2018-04-15T13:19:44.893Z,100966.98
2018-04-15T13:22:11.079Z,100966.45
2018-04-15T13:24:37.227Z,100954.23
2018-04-15T13:27:03.246Z,100962.03
2018-04-15T13:29:29.289Z,100950.87
2018-04-15T13:31:55.336Z,100952.00
2018-04-15T13:34:21.386Z,100959.75
2018-04-15T13:36:47.409Z,100949.48
2018-04-15T13:39:13.416Z,100951.37
2018-04-15T13:41:39.452Z,100951.09
2018-04-15T13:44:05.468Z,100942.90
2018-04-15T13:46:31.473Z,100942.16
2018-04-15T13:48:57.521Z,100932.09
2018-04-15T13:51:23.525Z,100940.20
2018-04-15T13:53:49.534Z,100940.78
2018-04-15T13:56:15.557Z,100929.74
2018-04-15T13:58:41.573Z,100924.89
2018-04-15T14:01:07.584Z,100923.36
2018-04-15T14:03:33.630Z,100926.98
2018-04-15T14:05:59.662Z,100924.58
2018-04-15T14:08:25.693Z,100916.92
2018-04-15T14:10:51.718Z,100923.71
2018-04-15T14:13:17.764Z,100915.06
2018-04-15T14:15:43.807Z,100918.29
2018-04-15T14:18:09.867Z,100916.40
2018-04-15T14:20:35.936Z,100913.70
2018-04-15T14:23:01.951Z,100910.05
2018-04-15T14:25:28.063Z,100909.07
2018-04-15T14:27:54.047Z,100906.59
2018-04-15T14:30:20.190Z,100911.34
2018-04-15T14:32:46.269Z,100906.66
2018-04-15T14:35:12.316Z,100909.36
2018-04-15T14:37:39.153Z,100911.50
2018-04-15T14:40:05.221Z,100912.67
2018-04-15T14:42:31.265Z,100911.66
2018-04-15T14:44:57.337Z,100917.30
2018-04-15T14:47:23.357Z,100909.20
2018-04-15T14:49:49.401Z,100906.69
2018-04-15T14:52:15.526Z,100909.23
2018-04-15T14:54:41.649Z,100903.40
2018-04-15T14:57:07.777Z,100902.48
2018-04-15T14:59:33.993Z,100894.97
2018-04-15T15:02:00.092Z,100900.17
2018-04-15T15:04:26.303Z,100893.97
2018-04-15T15:06:52.341Z,100899.62
2018-04-15T15:09:18.423Z,100892.52
2018-04-15T15:11:44.492Z,100896.48
2018-04-15T15:14:10.737Z,100893.05
2018-04-15T15:16:36.944Z,100888.22
2018-04-15T15:19:03.111Z,100884.18
2018-04-15T15:21:29.222Z,100887.55
2018-04-15T15:23:55.254Z,100892.03
2018-04-15T15:26:21.519Z,100889.95
2018-04-15T15:28:47.542Z,100885.80
2018-04-15T15:31:13.607Z,100881.97
2018-04-15T15:33:39.918Z,100872.83
2018-04-15T15:36:06.047Z,100872.66
2018-04-15T15:38:32.073Z,100869.20
2018-04-15T15:40:58.136Z,100867.70
2018-04-15T15:43:24.220Z,100864.91
2018-04-15T15:45:50.300Z,100863.91
2018-04-15T15:48:16.371Z,100864.52
2018-04-15T15:50:43.188Z,100859.27
2018-04-15T15:53:09.237Z,100862.77
2018-04-15T15:55:35.263Z,100862.08
2018-04-15T15:58:01.276Z,100866.03
2018-04-15T16:00:27.452Z,100865.70
2018-04-15T16:02:53.464Z,100867.20
2018-04-15T16:05:19.495Z,100863.31
2018-04-15T16:07:45.513Z,100860.39
2018-04-15T16:10:11.538Z,100862.29
2018-04-15T16:12:37.575Z,100861.30
2018-04-15T16:15:03.612Z,100866.72
2018-04-15T16:17:29.670Z,100860.75
2018-04-15T16:19:55.711Z,100860.50
2018-04-15T16:22:21.732Z,100857.70
2018-04-15T16:24:47.839Z,100864.92
2018-04-15T16:27:13.919Z,100861.62
2018-04-15T16:29:39.953Z,100864.89
2018-04-15T16:32:06.018Z,100867.27
2018-04-15T16:34:32.066Z,100863.03
2018-04-15T16:36:58.135Z,100871.88
2018-04-15T16:39:24.151Z,100868.77
2018-04-15T16:41:50.218Z,100868.77
2018-04-15T16:44:16.255Z,100869.41
2018-04-15T16:46:42.647Z,100865.11
2018-04-15T16:49:08.692Z,100869.29
2018-04-15T16:51:34.836Z,100868.26
2018-04-15T16:54:01.008Z,100867.48
2018-04-15T16:56:27.110Z,100868.13
2018-04-15T16:58:53.145Z,100874.84
2018-04-15T17:01:19.197Z,100872.53
2018-04-15T17:03:45.383Z,100871.37
2018-04-15T17:06:11.423Z,100872.43
2018-04-15T17:08:37.489Z,100874.50
2018-04-15T17:11:03.554Z,100872.76
2018-04-15T17:13:29.545Z,100877.86
2018-04-15T17:15:55.609Z,100873.46
2018-04-15T17:18:21.634Z,100870.57
2018-04-15T17:20:47.668Z,100866.95
2018-04-15T17:23:13.764Z,100879.49
2018-04-15T17:25:39.848Z,100878.16
2018-04-15T17:28:06.007Z,100872.17
2018-04-15T17:30:32.117Z,100873.44
2018-04-15T17:32:58.142Z,100866.55
2018-04-15T17:35:24.213Z,100863.17
2018-04-15T17:37:50.365Z,100863.16
2018-04-15T17:40:16.538Z,100860.34
2018-04-15T17:42:42.718Z,100864.11
2018-04-15T17:45:08.788Z,100868.45
2018-04-15T17:47:34.826Z,100869.23
2018-04-15T17:50:00.921Z,100874.67
2018-04-15T17:52:27.034Z,100872.62
2018-04-15T17:54:53.151Z,100873.52
2018-04-15T17:57:19.289Z,100877.88
2018-04-15T17:59:45.452Z,100880.72
2018-04-15T18:02:11.691Z,100893.81
2018-04-15T18:04:37.852Z,100892.42
2018-04-15T18:07:03.954Z,100896.03
2018-04-15T18:09:29.995Z,100890.08
2018-04-15T18:14:28.858Z,100895.36
2018-04-15T18:16:55.067Z,100896.71
2018-04-15T18:19:21.233Z,100893.37
2018-04-15T18:21:47.398Z,100888.03
2018-04-15T18:24:13.427Z,100896.47
2018-04-15T18:26:39.673Z,100897.77
2018-04-15T18:29:05.785Z,100890.91
2018-04-15T18:31:31.912Z,100904.82
2018-04-15T18:33:58.001Z,100900.73
2018-04-15T18:36:24.206Z,100904.63
2018-04-15T18:38:50.361Z,100896.08
2018-04-15T18:41:16.520Z,100905.86
2018-04-15T18:43:42.572Z,100907.11
2018-04-15T18:46:08.669Z,100903.56
2018-04-15T18:48:34.703Z,100906.84
2018-04-15T18:51:01.381Z,100901.50
2018-04-15T18:53:27.478Z,100899.59
2018-04-15T18:55:53.520Z,100901.80
2018-04-15T18:58:19.596Z,100907.64
2018-04-15T19:00:45.762Z,100908.27
2018-04-15T19:03:11.790Z,100897.95
2018-04-15T19:05:37.993Z,100903.78
2018-04-15T19:08:04.117Z,100902.50
2018-04-15T19:10:30.154Z,100906.38
2018-04-15T19:12:56.376Z,100902.77
2018-04-15T19:15:22.780Z,100904.63
2018-04-15T19:17:48.893Z,100903.06
2018-04-15T19:20:14.971Z,100907.38
2018-04-15T19:22:41.127Z,100905.78
2018-04-15T19:25:07.202Z,100902.86
2018-04-15T19:27:33.225Z,100910.59
2018-04-15T19:29:59.267Z,100912.45
2018-04-15T19:32:25.458Z,100915.97
2018-04-15T19:34:51.505Z,100913.97
2018-04-15T19:37:17.547Z,100909.09
2018-04-15T19:39:43.580Z,100904.23
2018-04-15T19:42:09.620Z,100910.38
2018-04-15T19:44:35.656Z,100910.89
2018-04-15T19:47:01.680Z,100914.77
2018-04-15T19:49:27.778Z,100914.53
2018-04-15T19:51:54.634Z,100912.44
2018-04-15T19:54:20.719Z,100912.10
2018-04-15T19:56:46.947Z,100917.23
2018-04-15T19:59:13.029Z,100923.03
2018-04-15T20:01:39.043Z,100923.54
2018-04-15T20:04:05.540Z,100925.66
2018-04-15T20:06:31.600Z,100926.84
2018-04-15T20:08:57.605Z,100922.58
2018-04-15T20:11:23.620Z,100925.64
2018-04-15T20:13:49.701Z,100926.81
2018-04-15T20:16:15.754Z,100921.97
2018-04-15T20:18:41.795Z,100925.58
2018-04-15T20:21:07.875Z,100916.77
2018-04-15T20:23:34.022Z,100917.70
2018-04-15T20:26:00.190Z,100916.20
2018-04-15T20:28:26.360Z,100918.47
2018-04-15T20:30:52.489Z,100912.84
2018-04-15T20:33:18.716Z,100905.47
2018-04-15T20:35:44.749Z,100905.97
2018-04-15T20:38:10.840Z,100904.81
2018-04-15T20:40:36.893Z,100907.67
2018-04-15T20:43:02.984Z,100909.70
2018-04-15T20:45:29.124Z,100910.20
2018-04-15T20:47:55.158Z,100916.59
2018-04-15T20:50:21.305Z,100914.08
2018-04-15T20:52:47.388Z,100912.48
2018-04-15T20:55:13.439Z,100918.03
2018-04-15T20:57:39.483Z,100910.16
2018-04-15T21:00:05.533Z,100908.39
2018-04-15T21:02:31.580Z,100912.93
2018-04-15T21:04:57.756Z,100914.03
2018-04-15T21:07:23.799Z,100912.09
2018-04-15T21:09:49.827Z,100910.58
2018-04-15T21:12:15.868Z,100913.59
2018-04-15T21:14:41.940Z,100912.69
2018-04-15T21:17:08.005Z,100909.45
2018-04-15T21:19:34.023Z,100914.32
2018-04-15T21:22:00.059Z,100914.03
2018-04-15T21:24:26.112Z,100911.13
2018-04-15T21:26:52.184Z,100911.72
2018-04-15T21:29:18.249Z,100909.58
2018-04-15T21:31:44.279Z,100915.37
2018-04-15T21:34:10.329Z,100917.42
2018-04-15T21:36:36.464Z,100915.70
2018-04-15T21:39:02.621Z,100919.31
2018-04-15T21:41:28.770Z,100919.70
2018-04-15T21:43:54.854Z,100916.50
2018-04-15T21:46:20.966Z,100918.17
2018-04-15T21:48:47.153Z,100920.80
2018-04-15T21:51:13.949Z,100920.63
2018-04-15T21:53:39.965Z,100916.87
2018-04-15T21:56:06.084Z,100920.89
2018-04-15T21:58:32.084Z,100923.76
2018-04-15T22:00:58.169Z,100938.79
2018-04-15T22:03:24.200Z,100932.32
2018-04-15T22:05:50.246Z,100933.50
2018-04-15T22:08:16.298Z,100931.42
2018-04-15T22:10:42.819Z,100949.91
2018-04-15T22:13:08.999Z,100940.88
2018-04-15T22:15:35.094Z,100943.14
2018-04-15T22:18:01.127Z,100936.54
2018-04-15T22:20:27.197Z,100939.56
2018-04-15T22:22:53.360Z,100939.84
2018-04-15T22:25:19.427Z,100944.54
2018-04-15T22:27:45.492Z,100949.91
2018-04-15T22:30:11.525Z,100943.78
2018-04-15T22:32:37.561Z,100944.86
2018-04-15T22:35:03.596Z,100937.59
2018-04-15T22:37:29.619Z,100945.22
2018-04-15T22:39:55.644Z,100944.04
2018-04-15T22:42:21.665Z,100936.75
2018-04-15T22:44:47.748Z,100939.00
2018-04-15T22:47:13.784Z,100937.66
2018-04-15T22:49:42.869Z,100931.45
2018-04-15T22:52:09.034Z,100931.72
2018-04-15T22:54:35.154Z,100931.80
2018-04-15T22:57:07.423Z,100925.59
2018-04-15T22:59:33.494Z,100931.39
2018-04-15T23:01:59.508Z,100927.78
2018-04-15T23:04:25.520Z,100924.94
2018-04-15T23:06:51.616Z,100931.39
2018-04-15T23:09:17.677Z,100930.29
2018-04-15T23:11:43.740Z,100933.58
2018-04-15T23:14:09.756Z,100931.31
2018-04-15T23:16:35.832Z,100931.39
2018-04-15T23:19:01.901Z,100937.25
2018-04-15T23:21:27.949Z,100938.84
2018-04-15T23:23:53.961Z,100937.92
2018-04-15T23:26:20.040Z,100943.03
2018-04-15T23:28:46.113Z,100940.45
2018-04-15T23:31:12.326Z,100937.08
2018-04-15T23:33:38.381Z,100931.04
2018-04-15T23:36:04.424Z,100938.83
2018-04-15T23:38:30.490Z,100941.00
2018-04-15T23:40:56.536Z,100942.84
2018-04-15T23:43:22.718Z,100937.00
2018-04-15T23:45:48.974Z,100930.30
2018-04-15T23:48:15.082Z,100935.23
2018-04-15T23:50:41.177Z,100923.01
2018-04-15T23:53:07.268Z,100925.25
2018-04-15T23:55:33.421Z,100927.19
2018-04-15T23:57:59.455Z,100927.11
